This is the latest recevied weather packets stored in our database for station/object IZ1UKX-13. If no packets are shown the sender has not sent any weather packets the latest 10 day(s).
| Time | Temp. | Humidity | Pressure | Rain* | Wind** | Luminosity | Snow |
|---|---|---|---|---|---|---|---|
| 1777745356 | 15° C | 51% | 1024 hPa | 0 mm | - | 0 W/m² | - |
| 1777745056 | 15° C | 50% | 1024 hPa | 0 mm | - | 0 W/m² | - |
| 1777744756 | 15.56° C | 50% | 1024 hPa | 0 mm | - | 0 W/m² | - |
| 1777743856 | 16.11° C | 47% | 1024 hPa | 0 mm | - | 0 W/m² | - |
| 1777743556 | 16.67° C | 47% | 1023.6 hPa | 0 mm | - | 0 W/m² | - |
| 1777742955 | 17.22° C | 46% | 1023.6 hPa | 0 mm | - | 0 W/m² | - |
| 1777742356 | 17.22° C | 45% | 1023.6 hPa | 0 mm | - | 0 W/m² | - |
| 1777742056 | 17.78° C | 43% | 1023.6 hPa | 0 mm | - | 0 W/m² | - |
| 1777741756 | 17.78° C | 43% | 1023.6 hPa | 0 mm | - | 0 W/m² | - |
| 1777741156 | 18.33° C | 42% | 1023.6 hPa | 0 mm | - | 0 W/m² | - |
| 1777740856 | 18.33° C | 41% | 1023.6 hPa | 0 mm | - | 0 W/m² | - |
| 1777739955 | 20° C | 37% | 1023.2 hPa | 0 mm | - | 0 W/m² | - |
| 1777739356 | 21.11° C | 35% | 1022.7 hPa | 0 mm | - | 0 W/m² | - |
| 1777739056 | 21.67° C | 35% | 1022.7 hPa | 0 mm | - | 0 W/m² | - |
| 1777738756 | 22.22° C | 33% | 1022.7 hPa | 0 mm | - | 0 W/m² | - |
| 1777738456 | 22.78° C | 32% | 1022.7 hPa | 0 mm | - | 0 W/m² | - |
| 1777738156 | 22.78° C | 31% | 1022.7 hPa | 0 mm | - | 0 W/m² | - |
| 1777737856 | 22.78° C | 32% | 1022.7 hPa | 0 mm | - | 0 W/m² | - |
| 1777737556 | 22.78° C | 33% | 1022.7 hPa | 0 mm | - | 0 W/m² | - |
| 1777736956 | 21.67° C | 34% | 1022.7 hPa | 0 mm | - | 0 W/m² | - |
| 1777736656 | 22.22° C | 34% | 1022.7 hPa | 0 mm | - | 0 W/m² | - |
| 1777736356 | 22.22° C | 34% | 1022.7 hPa | 0 mm | - | 0 W/m² | - |
| 1777736056 | 22.22° C | 33% | 1022.7 hPa | 0 mm | - | 0 W/m² | - |
| 1777735756 | 22.22° C | 33% | 1022.7 hPa | 0 mm | - | 0 W/m² | - |
| 1777735456 | 22.22° C | 34% | 1022.7 hPa | 0 mm | - | 0 W/m² | - |
* Rain latest hour (hover to see other rain measurements)
** Current wind speed in m/s (hover to see current wind gust speed)